createdAt,value
2022-11-06T00:00:16.595Z,43.20
2022-11-06T00:00:39.031Z,42.38
2022-11-06T00:01:08.510Z,42.50
2022-11-06T00:01:30.903Z,42.75
2022-11-06T00:01:53.190Z,41.38
2022-11-06T00:02:20.473Z,41.75
2022-11-06T00:02:42.972Z,42.53
2022-11-06T00:03:05.594Z,41.25
2022-11-06T00:03:27.477Z,41.88
2022-11-06T00:03:52.229Z,42.15
2022-11-06T00:04:14.011Z,43.00
2022-11-06T00:04:35.779Z,40.88
2022-11-06T00:05:20.192Z,40.33
2022-11-06T00:06:01.257Z,42.42
2022-11-06T00:06:41.919Z,42.00
2022-11-06T00:07:04.212Z,41.70
2022-11-06T00:07:26.080Z,41.97
2022-11-06T00:07:48.709Z,41.05
2022-11-06T00:08:10.714Z,40.67
2022-11-06T00:08:38.547Z,41.47
2022-11-06T00:09:02.005Z,40.60
2022-11-06T00:09:23.790Z,40.78
2022-11-06T00:09:45.894Z,40.92
2022-11-06T00:10:07.920Z,40.45
2022-11-06T00:10:31.506Z,42.63
2022-11-06T00:10:53.289Z,40.92
2022-11-06T00:11:17.692Z,38.10
2022-11-06T00:11:40.510Z,40.45
2022-11-06T00:12:02.343Z,41.03
2022-11-06T00:12:24.578Z,40.88
2022-11-06T00:12:46.838Z,42.47
2022-11-06T00:13:08.982Z,42.15
2022-11-06T00:13:30.987Z,40.13
2022-11-06T00:13:52.771Z,41.42
2022-11-06T00:14:15.026Z,42.00
2022-11-06T00:14:36.774Z,41.70
2022-11-06T00:14:58.959Z,39.90
2022-11-06T00:15:21.123Z,38.58
2022-11-06T00:15:42.885Z,41.10
2022-11-06T00:16:06.509Z,42.25
2022-11-06T00:16:28.658Z,43.35
2022-11-06T00:16:50.446Z,44.00
2022-11-06T00:17:12.551Z,42.95
2022-11-06T00:17:34.705Z,41.60
2022-11-06T00:17:56.533Z,42.85
2022-11-06T00:18:18.526Z,42.95
2022-11-06T00:18:41.643Z,42.35
2022-11-06T00:19:03.652Z,42.97
2022-11-06T00:19:25.850Z,41.88
2022-11-06T00:19:47.985Z,40.57
2022-11-06T00:20:10.464Z,41.42
2022-11-06T00:20:32.666Z,42.95
2022-11-06T00:20:54.490Z,42.58
2022-11-06T00:21:22.479Z,40.95
2022-11-06T00:21:44.900Z,42.05
2022-11-06T00:22:06.784Z,42.05
2022-11-06T00:22:28.730Z,43.47
2022-11-06T00:22:50.470Z,42.38
2022-11-06T00:23:12.223Z,42.17
2022-11-06T00:23:34.192Z,40.92
2022-11-06T00:23:57.381Z,41.15
2022-11-06T00:24:19.154Z,40.10
2022-11-06T00:24:40.901Z,39.20
2022-11-06T00:25:03.319Z,40.13
2022-11-06T00:25:25.151Z,39.35
2022-11-06T00:25:47.357Z,37.83
2022-11-06T00:26:10.436Z,38.08
2022-11-06T00:26:33.721Z,39.17
2022-11-06T00:26:55.952Z,39.35
2022-11-06T00:27:17.738Z,38.20
2022-11-06T00:27:41.527Z,39.85
2022-11-06T00:28:03.242Z,40.10
2022-11-06T00:28:26.515Z,40.25
2022-11-06T00:28:48.888Z,40.92
2022-11-06T00:29:14.523Z,40.67
2022-11-06T00:29:36.640Z,37.60
2022-11-06T00:29:58.406Z,39.30
2022-11-06T00:30:20.890Z,40.28
2022-11-06T00:30:42.663Z,39.90
2022-11-06T00:31:10.380Z,38.17
2022-11-06T00:31:36.012Z,37.97
2022-11-06T00:31:57.704Z,35.53
2022-11-06T00:32:19.871Z,38.17
2022-11-06T00:32:42.076Z,39.17
2022-11-06T00:33:03.897Z,37.53
2022-11-06T00:33:25.989Z,37.75
2022-11-06T00:33:48.242Z,38.40
2022-11-06T00:34:11.149Z,37.38
2022-11-06T00:34:32.880Z,37.50
2022-11-06T00:34:54.668Z,37.78
2022-11-06T00:35:16.535Z,36.25
2022-11-06T00:35:39.967Z,37.38
2022-11-06T00:36:06.750Z,36.67
2022-11-06T00:36:32.711Z,35.10
2022-11-06T00:36:54.447Z,36.03
2022-11-06T00:37:16.148Z,36.63
2022-11-06T00:37:37.928Z,35.47
2022-11-06T00:37:59.831Z,35.95
2022-11-06T00:38:22.307Z,36.50
2022-11-06T00:38:44.699Z,34.90
2022-11-06T00:39:06.531Z,35.05
2022-11-06T00:39:28.284Z,35.03
2022-11-06T00:39:50.076Z,35.47
2022-11-06T00:40:12.746Z,35.55
2022-11-06T00:40:35.421Z,35.65
2022-11-06T00:40:57.709Z,36.00
2022-11-06T00:41:20.168Z,34.53
2022-11-06T00:41:42.314Z,33.13
2022-11-06T00:42:04.208Z,35.97
2022-11-06T00:42:26.329Z,35.80
2022-11-06T00:42:48.192Z,35.97
2022-11-06T00:43:10.269Z,33.72
2022-11-06T00:43:33.094Z,35.35
2022-11-06T00:43:58.461Z,36.20
2022-11-06T00:44:20.251Z,33.97
2022-11-06T00:44:42.024Z,34.05
2022-11-06T00:45:04.019Z,34.50
2022-11-06T00:45:26.187Z,34.05
2022-11-06T00:45:47.960Z,35.53
2022-11-06T00:46:12.223Z,35.80
2022-11-06T00:46:34.447Z,34.30
2022-11-06T00:46:56.629Z,33.33
2022-11-06T00:47:19.089Z,34.35
2022-11-06T00:47:41.229Z,34.10
2022-11-06T00:48:02.999Z,32.90
2022-11-06T00:48:24.707Z,35.25
2022-11-06T00:48:46.941Z,35.53
2022-11-06T00:49:08.789Z,33.40
2022-11-06T00:49:30.724Z,32.40
2022-11-06T00:49:53.586Z,32.72
2022-11-06T00:50:15.521Z,33.60
2022-11-06T00:50:37.683Z,34.13
2022-11-06T00:51:07.571Z,32.95
2022-11-06T00:51:35.889Z,32.35
2022-11-06T00:51:57.762Z,33.08
2022-11-06T00:52:19.498Z,33.25
2022-11-06T00:52:41.260Z,34.17
2022-11-06T00:53:03.126Z,33.80
2022-11-06T00:53:25.255Z,32.40
2022-11-06T00:53:47.711Z,33.75
2022-11-06T00:54:13.953Z,33.78
2022-11-06T00:54:35.756Z,33.80
2022-11-06T00:54:57.885Z,33.72
2022-11-06T00:55:19.615Z,34.13
2022-11-06T00:55:41.318Z,31.85
2022-11-06T00:56:06.694Z,32.97
2022-11-06T00:56:29.199Z,33.65
2022-11-06T00:56:50.934Z,33.08
2022-11-06T00:57:13.310Z,32.42
2022-11-06T00:57:35.125Z,31.95
2022-11-06T00:57:58.362Z,32.08
2022-11-06T00:58:20.203Z,32.03
2022-11-06T00:58:42.619Z,31.05
2022-11-06T00:59:06.796Z,30.30
2022-11-06T00:59:28.551Z,30.75
2022-11-06T00:59:50.664Z,31.58
2022-11-06T01:00:13.264Z,32.30
2022-11-06T01:00:35.015Z,32.65
2022-11-06T01:00:58.421Z,32.40
2022-11-06T01:01:41.179Z,30.92
2022-11-06T01:02:03.451Z,31.40
2022-11-06T01:02:25.778Z,29.75
2022-11-06T01:02:48.148Z,30.60
2022-11-06T01:03:10.171Z,31.40
2022-11-06T01:03:31.986Z,30.98
2022-11-06T01:03:59.465Z,31.45
2022-11-06T01:04:23.667Z,30.48
2022-11-06T01:04:45.909Z,31.42
2022-11-06T01:05:08.145Z,31.20
2022-11-06T01:05:29.981Z,31.40
2022-11-06T01:05:51.792Z,30.95
2022-11-06T01:06:18.524Z,30.80
2022-11-06T01:06:45.615Z,31.42
2022-11-06T01:07:07.353Z,31.52
2022-11-06T01:07:29.114Z,32.53
2022-11-06T01:07:51.246Z,31.63
2022-11-06T01:08:13.683Z,31.65
2022-11-06T01:08:36.505Z,32.05
2022-11-06T01:08:58.355Z,31.10
2022-11-06T01:09:23.046Z,31.13
2022-11-06T01:09:45.181Z,32.25
2022-11-06T01:10:08.009Z,30.33
2022-11-06T01:10:29.834Z,31.58
2022-11-06T01:10:51.607Z,31.15
2022-11-06T01:11:19.790Z,31.02
2022-11-06T01:12:11.932Z,30.15
2022-11-06T01:12:28.674Z,30.73
2022-11-06T01:12:50.443Z,31.55
2022-11-06T01:13:12.664Z,31.63
2022-11-06T01:13:34.548Z,30.83
2022-11-06T01:13:58.117Z,31.48
2022-11-06T01:14:21.435Z,30.88
2022-11-06T01:14:44.035Z,31.40
2022-11-06T01:15:06.505Z,30.98
2022-11-06T01:15:28.356Z,31.85
2022-11-06T01:15:50.500Z,31.17
2022-11-06T01:16:14.450Z,30.40
2022-11-06T01:16:39.600Z,32.08
2022-11-06T01:17:01.456Z,32.22
2022-11-06T01:17:23.620Z,32.00
2022-11-06T01:17:45.767Z,32.60
2022-11-06T01:18:07.517Z,32.17
2022-11-06T01:18:29.709Z,32.90
2022-11-06T01:18:52.288Z,31.42
2022-11-06T01:19:16.684Z,31.73
2022-11-06T01:19:38.912Z,30.85
2022-11-06T01:20:00.685Z,31.30
2022-11-06T01:20:22.559Z,32.30
2022-11-06T01:20:44.586Z,32.40
2022-11-06T01:21:08.138Z,31.45
2022-11-06T01:21:36.423Z,32.22
2022-11-06T01:21:58.177Z,31.75
2022-11-06T01:22:20.194Z,30.90
2022-11-06T01:22:41.945Z,30.85
2022-11-06T01:23:04.224Z,30.77
2022-11-06T01:23:25.990Z,32.35
2022-11-06T01:23:48.672Z,32.53
2022-11-06T01:24:13.313Z,30.88
2022-11-06T01:24:35.317Z,31.95
2022-11-06T01:24:57.368Z,32.78
2022-11-06T01:25:19.587Z,33.20
2022-11-06T01:25:41.343Z,32.60
2022-11-06T01:26:06.436Z,33.67
2022-11-06T01:26:38.187Z,33.35
2022-11-06T01:27:25.353Z,33.55
2022-11-06T01:27:47.196Z,32.85
2022-11-06T01:28:08.945Z,32.50
2022-11-06T01:28:31.139Z,32.57
2022-11-06T01:28:53.477Z,33.05
2022-11-06T01:29:17.423Z,32.45
2022-11-06T01:29:39.322Z,33.35
2022-11-06T01:30:01.442Z,32.10
2022-11-06T01:30:23.194Z,32.58
2022-11-06T01:30:44.921Z,32.85
2022-11-06T01:31:09.608Z,34.65
2022-11-06T01:31:33.066Z,33.95
2022-11-06T01:31:54.829Z,33.88
2022-11-06T01:32:16.944Z,32.25
2022-11-06T01:32:38.676Z,33.38
2022-11-06T01:33:00.409Z,33.33
2022-11-06T01:33:22.528Z,33.92
2022-11-06T01:33:45.111Z,34.28
2022-11-06T01:34:07.481Z,33.33
2022-11-06T01:34:29.702Z,33.75
2022-11-06T01:34:52.270Z,34.45
2022-11-06T01:35:14.142Z,34.30
2022-11-06T01:35:35.854Z,33.92
2022-11-06T01:35:57.649Z,34.30
2022-11-06T01:36:21.017Z,33.47
2022-11-06T01:36:43.140Z,33.58
2022-11-06T01:37:05.254Z,34.20
2022-11-06T01:37:26.958Z,32.80
2022-11-06T01:37:48.669Z,32.72
2022-11-06T01:38:10.623Z,33.85
2022-11-06T01:38:32.606Z,34.58
2022-11-06T01:38:56.921Z,33.80
2022-11-06T01:39:19.100Z,35.28
2022-11-06T01:39:40.852Z,34.75
2022-11-06T01:40:02.973Z,33.97
2022-11-06T01:40:24.733Z,34.15
2022-11-06T01:40:48.801Z,33.72
2022-11-06T01:41:15.632Z,32.60
2022-11-06T01:41:40.333Z,35.08
2022-11-06T01:42:02.436Z,35.17
2022-11-06T01:42:24.400Z,34.10
2022-11-06T01:42:46.146Z,34.42
2022-11-06T01:43:16.865Z,34.28
2022-11-06T01:43:44.752Z,34.38
2022-11-06T01:44:35.166Z,34.50
2022-11-06T01:45:20.139Z,34.42
2022-11-06T01:45:44.646Z,35.30
2022-11-06T01:46:07.030Z,34.85
2022-11-06T01:46:34.799Z,36.13
2022-11-06T01:46:56.569Z,33.75
2022-11-06T01:47:24.441Z,33.67
2022-11-06T01:47:46.684Z,35.75
2022-11-06T01:48:09.112Z,35.70
2022-11-06T01:48:30.880Z,35.47
2022-11-06T01:49:00.253Z,34.75
2022-11-06T01:49:22.050Z,34.92
2022-11-06T01:49:44.364Z,36.13
2022-11-06T01:50:09.042Z,36.42
2022-11-06T01:50:31.438Z,34.83
2022-11-06T01:50:57.934Z,33.83
2022-11-06T01:51:21.821Z,34.47
2022-11-06T01:51:51.430Z,35.00
2022-11-06T01:52:14.837Z,33.28
2022-11-06T01:52:37.320Z,33.25
2022-11-06T01:53:02.825Z,34.28
2022-11-06T01:53:25.993Z,34.15
2022-11-06T01:53:48.130Z,33.33
2022-11-06T01:54:12.071Z,34.80
2022-11-06T01:54:36.613Z,36.72
2022-11-06T01:55:08.495Z,35.13
2022-11-06T01:55:35.866Z,34.50
2022-11-06T01:56:01.248Z,34.63
2022-11-06T01:56:23.585Z,34.72
2022-11-06T01:56:47.168Z,35.03
2022-11-06T01:57:10.581Z,35.55
2022-11-06T01:57:32.314Z,35.00
2022-11-06T01:57:55.753Z,35.15
2022-11-06T01:58:21.381Z,35.03
2022-11-06T01:58:45.983Z,35.00
2022-11-06T01:59:09.988Z,34.25
2022-11-06T01:59:33.357Z,35.03
2022-11-06T01:59:55.886Z,35.15
2022-11-06T02:00:19.965Z,34.40
2022-11-06T02:00:42.393Z,33.92
2022-11-06T02:01:04.871Z,34.20
2022-11-06T02:01:27.088Z,35.33
2022-11-06T02:01:50.480Z,36.53
2022-11-06T02:02:14.812Z,35.15
2022-11-06T02:02:38.191Z,34.60
2022-11-06T02:03:00.602Z,34.95
2022-11-06T02:03:23.425Z,36.25
2022-11-06T02:04:07.848Z,34.35
2022-11-06T02:04:34.470Z,34.70
2022-11-06T02:04:56.652Z,34.35
2022-11-06T02:05:18.903Z,34.00
2022-11-06T02:05:41.827Z,34.95
2022-11-06T02:06:07.441Z,34.83
2022-11-06T02:06:29.801Z,34.45
2022-11-06T02:06:52.009Z,33.90
2022-11-06T02:07:14.098Z,34.38
2022-11-06T02:07:36.619Z,34.95
2022-11-06T02:08:00.953Z,35.63
2022-11-06T02:08:23.218Z,33.08
2022-11-06T02:08:45.038Z,34.67
2022-11-06T02:09:12.237Z,34.20
2022-11-06T02:09:35.024Z,34.55
2022-11-06T02:09:56.782Z,34.63
2022-11-06T02:10:18.600Z,34.22
2022-11-06T02:10:41.880Z,33.70
2022-11-06T02:11:03.773Z,33.25
2022-11-06T02:11:25.571Z,34.25
2022-11-06T02:12:00.612Z,32.42
2022-11-06T02:12:34.255Z,34.10
2022-11-06T02:13:11.833Z,35.42
2022-11-06T02:13:54.939Z,34.85
2022-11-06T02:14:51.001Z,32.83
2022-11-06T02:15:21.166Z,33.63
2022-11-06T02:16:09.726Z,33.42
2022-11-06T02:16:42.297Z,32.40
2022-11-06T02:17:22.894Z,33.08
2022-11-06T02:18:06.238Z,33.65
2022-11-06T02:18:39.934Z,32.47
2022-11-06T02:19:20.854Z,33.63
2022-11-06T02:19:54.592Z,33.35
2022-11-06T02:20:36.547Z,33.08
2022-11-06T02:21:26.473Z,32.72
2022-11-06T02:22:03.032Z,32.70
2022-11-06T02:22:31.279Z,32.13
2022-11-06T02:23:30.399Z,32.50
2022-11-06T02:24:11.376Z,31.27
2022-11-06T02:24:48.775Z,32.03
2022-11-06T02:25:42.096Z,31.73
2022-11-06T02:26:15.848Z,31.20
2022-11-06T02:27:02.968Z,31.15
2022-11-06T02:27:26.899Z,31.65
2022-11-06T02:27:55.165Z,31.20
2022-11-06T02:28:29.855Z,32.65
2022-11-06T02:28:54.025Z,31.77
2022-11-06T02:29:28.751Z,30.27
2022-11-06T02:30:10.670Z,30.60
2022-11-06T02:30:41.197Z,30.75
2022-11-06T02:31:06.413Z,30.02
2022-11-06T02:31:34.477Z,32.25
2022-11-06T02:31:59.309Z,29.27
2022-11-06T02:32:39.966Z,30.83
2022-11-06T02:33:10.565Z,30.05
2022-11-06T02:33:41.048Z,31.40
2022-11-06T02:34:11.652Z,30.55
2022-11-06T02:34:39.394Z,31.30
2022-11-06T02:35:06.074Z,31.08
2022-11-06T02:35:33.431Z,30.38
2022-11-06T02:36:06.233Z,30.85
2022-11-06T02:36:33.431Z,30.23
2022-11-06T02:37:04.004Z,29.45
2022-11-06T02:37:31.277Z,30.27
2022-11-06T02:37:58.578Z,30.15
2022-11-06T02:38:28.275Z,28.75
2022-11-06T02:38:58.820Z,30.52
2022-11-06T02:39:24.394Z,30.42
2022-11-06T02:39:48.564Z,29.45
2022-11-06T02:40:12.961Z,28.73
2022-11-06T02:40:39.406Z,30.33
2022-11-06T02:41:06.647Z,28.73
2022-11-06T02:41:38.517Z,28.25
2022-11-06T02:42:02.298Z,28.90
2022-11-06T02:42:27.219Z,29.23
2022-11-06T02:42:51.691Z,28.50
2022-11-06T02:43:16.128Z,29.02
2022-11-06T02:43:40.144Z,29.05
2022-11-06T02:44:06.022Z,29.55
2022-11-06T02:44:32.132Z,29.13
2022-11-06T02:44:57.260Z,28.23
2022-11-06T02:45:20.157Z,27.35
2022-11-06T02:46:26.912Z,27.98
2022-11-06T02:46:55.313Z,29.50
2022-11-06T02:47:19.166Z,28.55
2022-11-06T02:47:43.096Z,28.23
2022-11-06T02:48:09.124Z,27.88
2022-11-06T02:48:37.407Z,28.98
2022-11-06T02:49:07.977Z,28.30
2022-11-06T02:49:50.033Z,28.85
2022-11-06T02:50:25.802Z,27.35
2022-11-06T02:50:50.437Z,27.20
2022-11-06T02:51:16.432Z,27.33
2022-11-06T02:51:44.094Z,27.88
2022-11-06T02:52:11.469Z,28.08
2022-11-06T02:52:37.671Z,27.35
2022-11-06T02:53:04.845Z,26.75
2022-11-06T02:53:27.832Z,26.50
2022-11-06T02:53:50.287Z,26.17
2022-11-06T02:54:14.397Z,27.02
2022-11-06T02:54:40.383Z,26.83
2022-11-06T02:55:11.697Z,26.25
2022-11-06T02:55:40.581Z,26.58
2022-11-06T02:56:20.109Z,27.25
2022-11-06T02:56:45.738Z,25.67
2022-11-06T02:57:11.538Z,25.60
2022-11-06T02:57:36.279Z,25.38
2022-11-06T02:58:04.041Z,26.25
2022-11-06T02:58:49.037Z,25.65
2022-11-06T02:59:11.414Z,25.52
2022-11-06T02:59:39.239Z,25.25
2022-11-06T03:00:19.330Z,26.55
2022-11-06T03:00:46.564Z,25.45
2022-11-06T03:01:16.057Z,24.88
2022-11-06T03:01:45.136Z,25.50
2022-11-06T03:02:10.722Z,25.05
2022-11-06T03:02:46.875Z,25.33
2022-11-06T03:03:23.367Z,25.13
2022-11-06T03:03:49.314Z,24.50
2022-11-06T03:04:23.285Z,23.60
2022-11-06T03:04:55.001Z,25.13
2022-11-06T03:05:23.811Z,24.40
2022-11-06T03:05:45.916Z,24.35
2022-11-06T03:06:11.462Z,24.33
2022-11-06T03:06:38.407Z,24.20
2022-11-06T03:07:30.886Z,23.35
2022-11-06T03:08:09.378Z,24.65
2022-11-06T03:08:44.459Z,24.05
2022-11-06T03:09:29.149Z,23.60
2022-11-06T03:09:51.251Z,24.48
2022-11-06T03:10:13.426Z,23.40
2022-11-06T03:11:13.883Z,23.67
2022-11-06T03:11:39.011Z,24.15
2022-11-06T03:12:32.917Z,24.15
2022-11-06T03:13:07.330Z,25.30
2022-11-06T03:13:39.407Z,25.08
2022-11-06T03:14:08.459Z,24.35
2022-11-06T03:14:45.500Z,23.33
2022-11-06T03:15:30.605Z,24.65
2022-11-06T03:16:27.176Z,23.85
2022-11-06T03:17:11.888Z,23.35
2022-11-06T03:17:56.827Z,23.13
2022-11-06T03:18:35.596Z,23.45
2022-11-06T03:19:26.338Z,23.80
2022-11-06T03:20:14.097Z,23.33
2022-11-06T03:20:40.405Z,24.15
2022-11-06T03:21:12.206Z,23.63
2022-11-06T03:21:54.589Z,22.70
2022-11-06T03:22:34.023Z,22.40
2022-11-06T03:23:10.178Z,24.13
2022-11-06T03:23:41.971Z,22.52
2022-11-06T03:24:29.789Z,22.85
2022-11-06T03:25:15.497Z,22.75
2022-11-06T03:25:44.758Z,22.75
2022-11-06T03:26:23.497Z,22.77
2022-11-06T03:26:50.125Z,23.25
2022-11-06T03:27:20.538Z,22.05
2022-11-06T03:28:00.176Z,22.83
2022-11-06T03:28:34.576Z,22.48
2022-11-06T03:29:15.018Z,22.35
2022-11-06T03:29:39.761Z,23.38
2022-11-06T03:30:16.312Z,22.20
2022-11-06T03:30:49.526Z,22.30
2022-11-06T03:31:17.722Z,22.55
2022-11-06T03:31:50.544Z,23.20
2022-11-06T03:32:41.474Z,21.98
2022-11-06T03:33:35.467Z,22.30
2022-11-06T03:34:07.282Z,21.80
2022-11-06T03:34:44.406Z,22.58
2022-11-06T03:35:29.448Z,23.05
2022-11-06T03:35:53.841Z,22.75
2022-11-06T03:36:27.790Z,22.77
2022-11-06T03:36:52.917Z,22.48
2022-11-06T03:37:22.957Z,22.98
2022-11-06T03:37:51.070Z,23.33
2022-11-06T03:38:32.366Z,21.77
2022-11-06T03:39:00.431Z,21.65
2022-11-06T03:39:27.818Z,22.67
2022-11-06T03:39:53.432Z,21.85
2022-11-06T03:40:19.781Z,22.73
2022-11-06T03:40:47.748Z,22.13
2022-11-06T03:41:14.880Z,22.27
2022-11-06T03:41:49.805Z,22.08
2022-11-06T03:42:15.631Z,22.98
2022-11-06T03:42:39.997Z,22.67
2022-11-06T03:43:06.979Z,22.38
2022-11-06T03:43:34.785Z,24.50
2022-11-06T03:44:00.675Z,23.92
2022-11-06T03:44:27.312Z,22.40
2022-11-06T03:44:53.470Z,22.48
2022-11-06T03:45:20.284Z,23.48
2022-11-06T03:45:44.186Z,23.90
2022-11-06T03:46:10.228Z,22.88
2022-11-06T03:46:33.450Z,22.98
2022-11-06T03:47:20.668Z,23.10
2022-11-06T03:48:05.497Z,23.33
2022-11-06T03:49:07.244Z,22.33
2022-11-06T03:49:52.211Z,23.02
2022-11-06T03:50:40.817Z,22.67
2022-11-06T03:51:14.160Z,23.60
2022-11-06T03:51:53.109Z,22.17
2022-11-06T03:52:30.623Z,22.88
2022-11-06T03:53:15.508Z,22.88
2022-11-06T03:53:42.100Z,23.42
2022-11-06T03:54:10.619Z,23.20
2022-11-06T03:54:55.156Z,22.77
2022-11-06T03:55:22.106Z,23.55
2022-11-06T03:55:49.499Z,23.20
2022-11-06T03:56:22.124Z,22.92
2022-11-06T03:56:50.869Z,22.58
2022-11-06T03:57:23.654Z,22.60
2022-11-06T03:57:55.986Z,22.67
2022-11-06T03:58:21.123Z,22.13
2022-11-06T03:58:46.688Z,22.98
2022-11-06T03:59:11.876Z,22.80
2022-11-06T03:59:39.665Z,22.05
2022-11-06T04:00:03.900Z,22.27
2022-11-06T04:00:25.686Z,22.23
2022-11-06T04:00:49.543Z,23.13
2022-11-06T04:01:13.718Z,22.02
2022-11-06T04:01:37.858Z,22.67
2022-11-06T04:02:02.116Z,23.02
2022-11-06T04:02:26.389Z,23.30
2022-11-06T04:03:16.097Z,21.92
2022-11-06T04:03:40.457Z,22.60
2022-11-06T04:04:04.979Z,23.02
2022-11-06T04:04:34.356Z,22.73
2022-11-06T04:05:00.471Z,22.98
2022-11-06T04:05:24.598Z,22.38
2022-11-06T04:05:49.921Z,22.92
2022-11-06T04:06:28.872Z,22.02
2022-11-06T04:07:08.112Z,22.60
2022-11-06T04:07:35.854Z,22.40
2022-11-06T04:08:16.532Z,22.65
2022-11-06T04:08:58.685Z,23.90
2022-11-06T04:09:41.160Z,22.40
2022-11-06T04:10:26.179Z,23.17
2022-11-06T04:11:09.815Z,22.65
2022-11-06T04:11:54.472Z,22.80
2022-11-06T04:12:41.477Z,22.02
2022-11-06T04:13:21.629Z,23.05
2022-11-06T04:14:01.989Z,22.83
2022-11-06T04:14:27.114Z,21.92
2022-11-06T04:14:54.265Z,21.75
2022-11-06T04:15:19.561Z,22.25
2022-11-06T04:15:51.969Z,22.35
2022-11-06T04:16:14.560Z,22.02
2022-11-06T04:16:41.333Z,22.13
2022-11-06T04:17:05.568Z,22.05
2022-11-06T04:17:29.814Z,22.90
2022-11-06T04:17:52.052Z,21.42
2022-11-06T04:18:17.203Z,22.27
2022-11-06T04:18:39.309Z,22.25
2022-11-06T04:19:01.726Z,22.58
2022-11-06T04:19:24.009Z,21.73
2022-11-06T04:19:55.360Z,21.75
2022-11-06T04:20:40.734Z,22.20
2022-11-06T04:21:38.829Z,22.63
2022-11-06T04:22:00.947Z,22.52
2022-11-06T04:22:41.477Z,22.50
2022-11-06T04:23:20.648Z,22.27
2022-11-06T04:24:26.279Z,22.95
2022-11-06T04:25:21.111Z,22.30
2022-11-06T04:26:23.680Z,23.13
2022-11-06T04:27:01.288Z,22.77
2022-11-06T04:27:43.675Z,22.30
2022-11-06T04:28:28.536Z,20.75
2022-11-06T04:29:12.637Z,22.38
2022-11-06T04:29:43.703Z,21.92
2022-11-06T04:30:14.547Z,22.58
2022-11-06T04:31:02.983Z,22.05
2022-11-06T04:31:44.057Z,20.88
2022-11-06T04:32:32.074Z,22.00
2022-11-06T04:33:07.344Z,21.70
2022-11-06T04:33:49.275Z,22.35
2022-11-06T04:34:21.604Z,21.85
2022-11-06T04:34:52.754Z,21.77
2022-11-06T04:35:35.114Z,21.20
2022-11-06T04:36:05.869Z,21.58
2022-11-06T04:36:39.420Z,21.33
2022-11-06T04:37:15.249Z,21.73
2022-11-06T04:37:42.889Z,22.17
2022-11-06T04:38:23.236Z,21.60
2022-11-06T04:38:59.630Z,22.05
2022-11-06T04:39:30.196Z,21.00
2022-11-06T04:40:06.042Z,21.15
2022-11-06T04:40:58.477Z,21.33
2022-11-06T04:41:47.530Z,21.08
2022-11-06T04:42:15.825Z,21.98
2022-11-06T04:42:43.889Z,21.48
2022-11-06T04:43:08.819Z,21.88
2022-11-06T04:43:35.461Z,21.33
2022-11-06T04:44:19.165Z,20.35
2022-11-06T04:44:49.573Z,21.95
2022-11-06T04:45:28.819Z,20.48
2022-11-06T04:45:54.259Z,21.38
2022-11-06T04:46:25.752Z,20.48
2022-11-06T04:46:56.924Z,21.60
2022-11-06T04:47:23.494Z,21.63
2022-11-06T04:47:47.192Z,21.50
2022-11-06T04:48:10.016Z,21.50
2022-11-06T04:48:32.564Z,21.15
2022-11-06T04:48:54.997Z,20.88
2022-11-06T04:49:18.502Z,20.65
2022-11-06T04:49:43.226Z,20.38
2022-11-06T04:50:06.724Z,20.70
2022-11-06T04:50:30.800Z,21.70
2022-11-06T04:50:56.563Z,22.08
2022-11-06T04:51:22.145Z,21.25
2022-11-06T04:51:45.983Z,21.02
2022-11-06T04:52:11.121Z,19.52
2022-11-06T04:52:34.173Z,20.52
2022-11-06T04:52:57.065Z,20.35
2022-11-06T04:53:21.145Z,21.63
2022-11-06T04:53:43.974Z,20.85
2022-11-06T04:54:09.006Z,21.23
2022-11-06T04:54:32.205Z,21.42
2022-11-06T04:54:56.057Z,20.95
2022-11-06T04:55:18.273Z,19.75
2022-11-06T04:55:50.934Z,20.70
2022-11-06T04:56:21.520Z,21.73
2022-11-06T04:56:46.318Z,20.95
2022-11-06T04:57:08.557Z,21.27
2022-11-06T04:57:31.815Z,22.15
2022-11-06T04:57:53.624Z,21.58
2022-11-06T04:58:16.930Z,20.33
2022-11-06T04:58:38.784Z,20.48
2022-11-06T04:59:00.540Z,20.55
2022-11-06T04:59:22.316Z,21.42
2022-11-06T04:59:44.117Z,20.85
2022-11-06T05:00:06.500Z,20.55
2022-11-06T05:00:28.247Z,20.50
2022-11-06T05:00:51.661Z,20.30
2022-11-06T05:01:14.003Z,20.75
2022-11-06T05:01:35.951Z,20.90
2022-11-06T05:01:57.948Z,19.80
2022-11-06T05:02:19.778Z,21.23
2022-11-06T05:02:41.971Z,20.83
2022-11-06T05:03:03.737Z,21.38
2022-11-06T05:03:25.453Z,20.52
2022-11-06T05:03:47.587Z,21.05
2022-11-06T05:04:10.909Z,22.15
2022-11-06T05:04:33.805Z,22.00
2022-11-06T05:04:55.588Z,22.23
2022-11-06T05:05:17.415Z,21.80
2022-11-06T05:05:39.269Z,20.88
2022-11-06T05:06:01.199Z,20.88
2022-11-06T05:06:28.662Z,21.33
2022-11-06T05:06:51.774Z,20.67
2022-11-06T05:07:14.832Z,21.38
2022-11-06T05:07:36.791Z,22.20
2022-11-06T05:07:58.960Z,22.23
2022-11-06T05:08:21.314Z,21.58
2022-11-06T05:08:43.106Z,22.20
2022-11-06T05:09:04.887Z,22.08
2022-11-06T05:09:26.996Z,22.38
2022-11-06T05:09:48.916Z,22.05
2022-11-06T05:10:11.106Z,22.27
2022-11-06T05:10:32.984Z,22.27
2022-11-06T05:10:54.827Z,22.50
2022-11-06T05:11:16.573Z,20.90
2022-11-06T05:11:38.824Z,21.65
2022-11-06T05:12:00.940Z,20.67
2022-11-06T05:12:23.177Z,21.30
2022-11-06T05:12:47.198Z,21.83
2022-11-06T05:13:09.483Z,21.75
2022-11-06T05:13:31.242Z,21.58
2022-11-06T05:13:53.017Z,21.45
2022-11-06T05:14:14.808Z,22.15
2022-11-06T05:14:36.550Z,21.85
2022-11-06T05:14:58.402Z,21.02
2022-11-06T05:15:20.179Z,21.50
2022-11-06T05:15:42.710Z,22.30
2022-11-06T05:16:05.021Z,22.45
2022-11-06T05:16:26.790Z,22.40
2022-11-06T05:16:48.869Z,21.52
2022-11-06T05:17:11.093Z,20.98
2022-11-06T05:17:36.462Z,21.00
2022-11-06T05:17:59.195Z,22.40
2022-11-06T05:18:21.005Z,22.45
2022-11-06T05:18:42.861Z,22.88
2022-11-06T05:19:04.813Z,21.65
2022-11-06T05:19:26.676Z,22.08
2022-11-06T05:19:48.424Z,21.83
2022-11-06T05:20:10.499Z,20.58
2022-11-06T05:20:32.577Z,21.23
2022-11-06T05:21:17.525Z,22.38
2022-11-06T05:21:57.848Z,22.08
2022-11-06T05:22:38.418Z,20.70
2022-11-06T05:23:00.825Z,20.90
2022-11-06T05:23:23.201Z,21.52
2022-11-06T05:23:44.941Z,21.50
2022-11-06T05:24:07.389Z,21.58
2022-11-06T05:24:29.171Z,22.05
2022-11-06T05:24:51.154Z,22.27
2022-11-06T05:25:12.905Z,21.88
2022-11-06T05:25:36.064Z,22.45
2022-11-06T05:25:57.807Z,22.08
2022-11-06T05:26:19.529Z,23.02
2022-11-06T05:26:41.721Z,22.83
2022-11-06T05:27:03.481Z,21.98
2022-11-06T05:27:25.600Z,21.08
2022-11-06T05:27:47.370Z,21.27
2022-11-06T05:28:09.625Z,21.67
2022-11-06T05:28:31.591Z,22.23
2022-11-06T05:28:53.301Z,21.55
2022-11-06T05:29:15.252Z,20.75
2022-11-06T05:29:37.014Z,21.30
2022-11-06T05:29:58.723Z,22.33
2022-11-06T05:30:20.842Z,20.65
2022-11-06T05:30:43.814Z,20.75
2022-11-06T05:31:05.918Z,21.17
2022-11-06T05:31:27.994Z,20.30
2022-11-06T05:31:49.723Z,20.65
2022-11-06T05:32:11.498Z,20.85
2022-11-06T05:32:33.652Z,21.00
2022-11-06T05:32:55.394Z,19.45
2022-11-06T05:33:17.299Z,19.67
2022-11-06T05:33:39.263Z,20.27
2022-11-06T05:34:01.082Z,20.38
2022-11-06T05:34:22.825Z,19.92
2022-11-06T05:34:45.964Z,20.27
2022-11-06T05:35:08.211Z,20.98
2022-11-06T05:35:30.209Z,19.90
2022-11-06T05:35:52.789Z,20.10
2022-11-06T05:36:14.535Z,19.52
2022-11-06T05:36:36.308Z,19.83
2022-11-06T05:36:58.528Z,20.13
2022-11-06T05:37:20.700Z,19.45
2022-11-06T05:37:42.596Z,19.75
2022-11-06T05:38:04.396Z,20.35
2022-11-06T05:38:26.134Z,20.10
2022-11-06T05:38:47.845Z,19.85
2022-11-06T05:39:10.030Z,19.55
2022-11-06T05:39:31.860Z,19.58
2022-11-06T05:39:53.656Z,20.60
2022-11-06T05:40:15.860Z,21.95
2022-11-06T05:40:38.058Z,20.55
2022-11-06T05:40:59.956Z,20.00
2022-11-06T05:41:21.790Z,19.10
2022-11-06T05:41:43.650Z,19.08
2022-11-06T05:42:05.739Z,20.35
2022-11-06T05:42:27.728Z,19.55
2022-11-06T05:42:49.437Z,20.33
2022-11-06T05:43:11.172Z,20.30
2022-11-06T05:43:33.122Z,19.67
2022-11-06T05:43:54.974Z,19.73
2022-11-06T05:44:16.775Z,19.98
2022-11-06T05:44:38.716Z,20.00
2022-11-06T05:45:00.563Z,20.02
2022-11-06T05:45:22.356Z,20.42
2022-11-06T05:45:44.110Z,18.77
2022-11-06T05:46:11.593Z,18.50
2022-11-06T05:46:49.360Z,19.25
2022-11-06T05:47:11.932Z,19.15
2022-11-06T05:47:34.668Z,19.15
2022-11-06T05:47:56.536Z,19.35
2022-11-06T05:48:18.457Z,18.85